sensor_id;sensor_type;location;lat;lon;timestamp;P1;durP1;ratioP1;P2;durP2;ratioP2
71253;SDS011;59019;47.638;18.966;2023-10-08T00:00:47;7.47;;;2.50;;
71253;SDS011;59019;47.638;18.966;2023-10-08T00:03:20;7.30;;;2.30;;
71253;SDS011;59019;47.638;18.966;2023-10-08T00:05:49;7.77;;;2.67;;
71253;SDS011;59019;47.638;18.966;2023-10-08T00:08:15;7.03;;;2.60;;
71253;SDS011;59019;47.638;18.966;2023-10-08T00:10:42;6.95;;;2.40;;
71253;SDS011;59019;47.638;18.966;2023-10-08T00:13:16;9.13;;;2.70;;
71253;SDS011;59019;47.638;18.966;2023-10-08T00:15:42;7.78;;;2.40;;
71253;SDS011;59019;47.638;18.966;2023-10-08T00:18:20;8.18;;;2.40;;
71253;SDS011;59019;47.638;18.966;2023-10-08T00:20:47;7.22;;;2.50;;
71253;SDS011;59019;47.638;18.966;2023-10-08T00:23:34;8.23;;;2.50;;
71253;SDS011;59019;47.638;18.966;2023-10-08T00:26:00;8.07;;;2.60;;
71253;SDS011;59019;47.638;18.966;2023-10-08T00:28:30;8.07;;;2.50;;
71253;SDS011;59019;47.638;18.966;2023-10-08T00:30:57;7.27;;;2.57;;
71253;SDS011;59019;47.638;18.966;2023-10-08T00:33:23;7.30;;;2.53;;
71253;SDS011;59019;47.638;18.966;2023-10-08T00:35:49;7.72;;;2.75;;
71253;SDS011;59019;47.638;18.966;2023-10-08T00:38:15;7.25;;;2.50;;
71253;SDS011;59019;47.638;18.966;2023-10-08T00:40:42;9.27;;;2.78;;
71253;SDS011;59019;47.638;18.966;2023-10-08T00:43:11;9.27;;;2.70;;
71253;SDS011;59019;47.638;18.966;2023-10-08T00:45:56;8.18;;;2.45;;
71253;SDS011;59019;47.638;18.966;2023-10-08T00:48:24;7.22;;;2.50;;
71253;SDS011;59019;47.638;18.966;2023-10-08T00:50:54;7.93;;;2.57;;
71253;SDS011;59019;47.638;18.966;2023-10-08T00:53:34;7.72;;;2.53;;
71253;SDS011;59019;47.638;18.966;2023-10-08T00:56:05;7.57;;;2.47;;
71253;SDS011;59019;47.638;18.966;2023-10-08T00:58:38;7.22;;;2.50;;
71253;SDS011;59019;47.638;18.966;2023-10-08T01:01:06;7.75;;;2.63;;
71253;SDS011;59019;47.638;18.966;2023-10-08T01:03:37;7.88;;;2.55;;
71253;SDS011;59019;47.638;18.966;2023-10-08T01:06:09;7.37;;;2.60;;
71253;SDS011;59019;47.638;18.966;2023-10-08T01:08:37;7.65;;;2.40;;
71253;SDS011;59019;47.638;18.966;2023-10-08T01:11:20;9.55;;;2.90;;
71253;SDS011;59019;47.638;18.966;2023-10-08T01:14:08;7.30;;;2.58;;
71253;SDS011;59019;47.638;18.966;2023-10-08T01:16:33;8.50;;;2.47;;
71253;SDS011;59019;47.638;18.966;2023-10-08T01:18:59;9.55;;;2.67;;
71253;SDS011;59019;47.638;18.966;2023-10-08T01:21:28;7.70;;;2.60;;
71253;SDS011;59019;47.638;18.966;2023-10-08T01:24:02;7.88;;;2.45;;
71253;SDS011;59019;47.638;18.966;2023-10-08T01:26:32;9.50;;;2.55;;
71253;SDS011;59019;47.638;18.966;2023-10-08T01:29:04;8.95;;;2.53;;
71253;SDS011;59019;47.638;18.966;2023-10-08T01:31:34;8.35;;;2.80;;
71253;SDS011;59019;47.638;18.966;2023-10-08T01:34:04;8.27;;;2.60;;
71253;SDS011;59019;47.638;18.966;2023-10-08T01:36:30;7.50;;;2.58;;
71253;SDS011;59019;47.638;18.966;2023-10-08T01:38:56;7.18;;;2.65;;
71253;SDS011;59019;47.638;18.966;2023-10-08T01:41:23;8.93;;;2.60;;
71253;SDS011;59019;47.638;18.966;2023-10-08T01:43:55;7.78;;;2.50;;
71253;SDS011;59019;47.638;18.966;2023-10-08T01:46:24;7.68;;;2.40;;
71253;SDS011;59019;47.638;18.966;2023-10-08T01:48:50;8.65;;;2.78;;
71253;SDS011;59019;47.638;18.966;2023-10-08T01:51:18;7.90;;;2.45;;
71253;SDS011;59019;47.638;18.966;2023-10-08T01:53:50;6.85;;;2.40;;
71253;SDS011;59019;47.638;18.966;2023-10-08T01:56:19;6.67;;;2.43;;
71253;SDS011;59019;47.638;18.966;2023-10-08T01:58:44;7.80;;;2.47;;
71253;SDS011;59019;47.638;18.966;2023-10-08T02:01:11;7.40;;;2.60;;
71253;SDS011;59019;47.638;18.966;2023-10-08T02:03:38;8.27;;;2.50;;
71253;SDS011;59019;47.638;18.966;2023-10-08T02:06:03;8.75;;;2.70;;
71253;SDS011;59019;47.638;18.966;2023-10-08T02:08:34;7.67;;;2.40;;
71253;SDS011;59019;47.638;18.966;2023-10-08T02:11:01;8.57;;;2.45;;
71253;SDS011;59019;47.638;18.966;2023-10-08T02:13:27;7.38;;;2.50;;
71253;SDS011;59019;47.638;18.966;2023-10-08T02:15:53;7.63;;;2.40;;
71253;SDS011;59019;47.638;18.966;2023-10-08T02:18:18;7.93;;;2.43;;
71253;SDS011;59019;47.638;18.966;2023-10-08T02:20:45;9.25;;;2.90;;
71253;SDS011;59019;47.638;18.966;2023-10-08T02:23:11;8.53;;;2.60;;
71253;SDS011;59019;47.638;18.966;2023-10-08T02:25:40;8.05;;;2.30;;
71253;SDS011;59019;47.638;18.966;2023-10-08T02:28:06;7.90;;;2.40;;
71253;SDS011;59019;47.638;18.966;2023-10-08T02:30:37;7.68;;;2.53;;
71253;SDS011;59019;47.638;18.966;2023-10-08T02:33:04;8.18;;;2.58;;
71253;SDS011;59019;47.638;18.966;2023-10-08T02:35:39;7.95;;;2.50;;
71253;SDS011;59019;47.638;18.966;2023-10-08T02:38:07;8.32;;;2.75;;
71253;SDS011;59019;47.638;18.966;2023-10-08T02:40:34;8.57;;;2.70;;
71253;SDS011;59019;47.638;18.966;2023-10-08T02:43:02;7.37;;;2.30;;
71253;SDS011;59019;47.638;18.966;2023-10-08T02:45:31;7.67;;;2.50;;
71253;SDS011;59019;47.638;18.966;2023-10-08T02:47:56;8.00;;;2.50;;
71253;SDS011;59019;47.638;18.966;2023-10-08T02:50:22;6.95;;;2.47;;
71253;SDS011;59019;47.638;18.966;2023-10-08T02:52:51;7.43;;;2.40;;
71253;SDS011;59019;47.638;18.966;2023-10-08T02:55:17;7.40;;;2.45;;
71253;SDS011;59019;47.638;18.966;2023-10-08T02:58:08;8.05;;;2.35;;
71253;SDS011;59019;47.638;18.966;2023-10-08T03:00:43;9.65;;;2.70;;
71253;SDS011;59019;47.638;18.966;2023-10-08T03:03:09;7.80;;;2.40;;
71253;SDS011;59019;47.638;18.966;2023-10-08T03:05:44;9.10;;;2.55;;
71253;SDS011;59019;47.638;18.966;2023-10-08T03:08:11;9.20;;;2.60;;
71253;SDS011;59019;47.638;18.966;2023-10-08T03:10:45;9.27;;;2.77;;
71253;SDS011;59019;47.638;18.966;2023-10-08T03:13:11;6.97;;;2.40;;
71253;SDS011;59019;47.638;18.966;2023-10-08T03:15:38;8.82;;;2.45;;
71253;SDS011;59019;47.638;18.966;2023-10-08T03:18:11;7.00;;;2.37;;
71253;SDS011;59019;47.638;18.966;2023-10-08T03:20:40;9.30;;;2.37;;
71253;SDS011;59019;47.638;18.966;2023-10-08T03:23:12;8.73;;;2.40;;
71253;SDS011;59019;47.638;18.966;2023-10-08T03:25:59;10.57;;;2.40;;
71253;SDS011;59019;47.638;18.966;2023-10-08T03:28:53;7.65;;;2.40;;
71253;SDS011;59019;47.638;18.966;2023-10-08T03:31:23;14.85;;;2.58;;
71253;SDS011;59019;47.638;18.966;2023-10-08T03:34:08;9.95;;;2.60;;
71253;SDS011;59019;47.638;18.966;2023-10-08T03:36:40;9.55;;;2.53;;
71253;SDS011;59019;47.638;18.966;2023-10-08T03:39:13;7.93;;;2.22;;
71253;SDS011;59019;47.638;18.966;2023-10-08T03:41:41;10.73;;;2.60;;
71253;SDS011;59019;47.638;18.966;2023-10-08T03:44:07;10.07;;;2.60;;
71253;SDS011;59019;47.638;18.966;2023-10-08T03:46:41;8.70;;;2.70;;
71253;SDS011;59019;47.638;18.966;2023-10-08T03:49:11;9.52;;;2.70;;
71253;SDS011;59019;47.638;18.966;2023-10-08T03:51:45;8.77;;;2.33;;
71253;SDS011;59019;47.638;18.966;2023-10-08T03:54:11;9.52;;;2.35;;
71253;SDS011;59019;47.638;18.966;2023-10-08T03:56:39;9.27;;;2.20;;
71253;SDS011;59019;47.638;18.966;2023-10-08T03:59:13;10.82;;;2.45;;
71253;SDS011;59019;47.638;18.966;2023-10-08T04:02:02;10.20;;;2.33;;
71253;SDS011;59019;47.638;18.966;2023-10-08T04:04:57;8.20;;;2.55;;
71253;SDS011;59019;47.638;18.966;2023-10-08T04:07:23;10.23;;;2.40;;
71253;SDS011;59019;47.638;18.966;2023-10-08T04:09:54;7.53;;;2.57;;
71253;SDS011;59019;47.638;18.966;2023-10-08T04:12:40;8.45;;;2.45;;
71253;SDS011;59019;47.638;18.966;2023-10-08T04:15:10;7.93;;;2.33;;
71253;SDS011;59019;47.638;18.966;2023-10-08T04:17:37;8.32;;;2.42;;
71253;SDS011;59019;47.638;18.966;2023-10-08T04:20:14;10.32;;;2.33;;
71253;SDS011;59019;47.638;18.966;2023-10-08T04:23:04;9.10;;;2.25;;
71253;SDS011;59019;47.638;18.966;2023-10-08T04:25:38;9.18;;;2.30;;
71253;SDS011;59019;47.638;18.966;2023-10-08T04:28:04;8.55;;;2.47;;
71253;SDS011;59019;47.638;18.966;2023-10-08T04:30:34;7.53;;;2.58;;
71253;SDS011;59019;47.638;18.966;2023-10-08T04:33:03;8.10;;;2.13;;
71253;SDS011;59019;47.638;18.966;2023-10-08T04:35:33;8.68;;;2.35;;
71253;SDS011;59019;47.638;18.966;2023-10-08T04:38:02;6.60;;;2.20;;
71253;SDS011;59019;47.638;18.966;2023-10-08T04:40:29;7.72;;;2.30;;
71253;SDS011;59019;47.638;18.966;2023-10-08T04:43:04;8.40;;;2.40;;
71253;SDS011;59019;47.638;18.966;2023-10-08T04:45:30;8.13;;;2.33;;
71253;SDS011;59019;47.638;18.966;2023-10-08T04:47:59;9.23;;;2.30;;
71253;SDS011;59019;47.638;18.966;2023-10-08T04:50:24;9.70;;;2.30;;
71253;SDS011;59019;47.638;18.966;2023-10-08T04:52:55;7.20;;;2.30;;
71253;SDS011;59019;47.638;18.966;2023-10-08T04:55:26;10.17;;;2.43;;
71253;SDS011;59019;47.638;18.966;2023-10-08T04:57:54;8.52;;;2.50;;
71253;SDS011;59019;47.638;18.966;2023-10-08T05:00:21;8.75;;;2.40;;
71253;SDS011;59019;47.638;18.966;2023-10-08T05:03:05;10.18;;;2.38;;
71253;SDS011;59019;47.638;18.966;2023-10-08T05:05:38;8.93;;;2.33;;
71253;SDS011;59019;47.638;18.966;2023-10-08T05:08:32;9.00;;;2.30;;
71253;SDS011;59019;47.638;18.966;2023-10-08T05:11:09;7.03;;;2.13;;
71253;SDS011;59019;47.638;18.966;2023-10-08T05:14:02;7.85;;;2.33;;
71253;SDS011;59019;47.638;18.966;2023-10-08T05:16:32;9.82;;;2.30;;
71253;SDS011;59019;47.638;18.966;2023-10-08T05:19:23;9.85;;;2.35;;
71253;SDS011;59019;47.638;18.966;2023-10-08T05:22:08;6.70;;;2.20;;
71253;SDS011;59019;47.638;18.966;2023-10-08T05:24:47;9.25;;;2.42;;
71253;SDS011;59019;47.638;18.966;2023-10-08T05:27:32;7.80;;;2.42;;
71253;SDS011;59019;47.638;18.966;2023-10-08T05:30:16;7.33;;;2.33;;
71253;SDS011;59019;47.638;18.966;2023-10-08T05:33:02;8.97;;;2.50;;
71253;SDS011;59019;47.638;18.966;2023-10-08T05:35:29;8.23;;;2.47;;
71253;SDS011;59019;47.638;18.966;2023-10-08T05:38:10;7.20;;;2.30;;
71253;SDS011;59019;47.638;18.966;2023-10-08T05:40:55;9.80;;;2.25;;
71253;SDS011;59019;47.638;18.966;2023-10-08T05:43:31;8.00;;;2.30;;
71253;SDS011;59019;47.638;18.966;2023-10-08T05:46:07;7.20;;;2.22;;
71253;SDS011;59019;47.638;18.966;2023-10-08T05:51:32;8.60;;;2.60;;
71253;SDS011;59019;47.638;18.966;2023-10-08T05:54:16;8.63;;;2.50;;
71253;SDS011;59019;47.638;18.966;2023-10-08T05:56:59;9.48;;;2.70;;
71253;SDS011;59019;47.638;18.966;2023-10-08T05:59:44;10.30;;;2.40;;
71253;SDS011;59019;47.638;18.966;2023-10-08T06:02:23;8.70;;;2.50;;
71253;SDS011;59019;47.638;18.966;2023-10-08T06:05:13;7.78;;;2.45;;
71253;SDS011;59019;47.638;18.966;2023-10-08T06:10:16;9.60;;;2.47;;
71253;SDS011;59019;47.638;18.966;2023-10-08T06:13:12;6.60;;;2.42;;
71253;SDS011;59019;47.638;18.966;2023-10-08T06:18:17;7.15;;;2.28;;
71253;SDS011;59019;47.638;18.966;2023-10-08T06:20:47;8.48;;;2.40;;
71253;SDS011;59019;47.638;18.966;2023-10-08T06:23:14;8.47;;;2.60;;
71253;SDS011;59019;47.638;18.966;2023-10-08T06:25:47;8.07;;;2.50;;
71253;SDS011;59019;47.638;18.966;2023-10-08T06:28:19;9.30;;;2.70;;
71253;SDS011;59019;47.638;18.966;2023-10-08T06:30:48;8.23;;;2.50;;
71253;SDS011;59019;47.638;18.966;2023-10-08T06:33:15;6.80;;;2.30;;
71253;SDS011;59019;47.638;18.966;2023-10-08T06:35:41;9.60;;;2.35;;
71253;SDS011;59019;47.638;18.966;2023-10-08T06:38:22;8.48;;;2.47;;
71253;SDS011;59019;47.638;18.966;2023-10-08T06:40:49;8.43;;;2.38;;
71253;SDS011;59019;47.638;18.966;2023-10-08T06:43:17;7.45;;;2.30;;
71253;SDS011;59019;47.638;18.966;2023-10-08T06:45:50;8.38;;;2.47;;
71253;SDS011;59019;47.638;18.966;2023-10-08T06:48:19;10.40;;;2.70;;
71253;SDS011;59019;47.638;18.966;2023-10-08T06:50:48;8.77;;;2.50;;
71253;SDS011;59019;47.638;18.966;2023-10-08T06:53:16;8.80;;;2.50;;
71253;SDS011;59019;47.638;18.966;2023-10-08T06:55:46;8.38;;;2.60;;
71253;SDS011;59019;47.638;18.966;2023-10-08T06:58:21;10.05;;;2.70;;
71253;SDS011;59019;47.638;18.966;2023-10-08T07:00:48;8.20;;;2.60;;
71253;SDS011;59019;47.638;18.966;2023-10-08T07:03:14;6.40;;;2.23;;
71253;SDS011;59019;47.638;18.966;2023-10-08T07:05:44;12.23;;;2.63;;
71253;SDS011;59019;47.638;18.966;2023-10-08T07:08:20;8.87;;;2.63;;
71253;SDS011;59019;47.638;18.966;2023-10-08T07:10:52;8.95;;;2.80;;
71253;SDS011;59019;47.638;18.966;2023-10-08T07:13:19;8.93;;;2.60;;
71253;SDS011;59019;47.638;18.966;2023-10-08T07:15:51;8.70;;;2.70;;
71253;SDS011;59019;47.638;18.966;2023-10-08T07:18:17;9.65;;;2.75;;
71253;SDS011;59019;47.638;18.966;2023-10-08T07:20:53;10.47;;;2.70;;
71253;SDS011;59019;47.638;18.966;2023-10-08T07:23:23;9.77;;;2.70;;
71253;SDS011;59019;47.638;18.966;2023-10-08T07:26:02;8.15;;;2.63;;
71253;SDS011;59019;47.638;18.966;2023-10-08T07:28:39;8.27;;;2.70;;
71253;SDS011;59019;47.638;18.966;2023-10-08T07:31:15;8.20;;;2.67;;
71253;SDS011;59019;47.638;18.966;2023-10-08T07:33:46;7.78;;;2.75;;
71253;SDS011;59019;47.638;18.966;2023-10-08T07:36:12;8.75;;;2.60;;
71253;SDS011;59019;47.638;18.966;2023-10-08T07:38:43;9.43;;;2.63;;
71253;SDS011;59019;47.638;18.966;2023-10-08T07:41:13;8.55;;;2.50;;
71253;SDS011;59019;47.638;18.966;2023-10-08T07:43:43;8.77;;;2.78;;
71253;SDS011;59019;47.638;18.966;2023-10-08T07:46:12;7.38;;;2.50;;
71253;SDS011;59019;47.638;18.966;2023-10-08T07:48:40;7.77;;;2.73;;
71253;SDS011;59019;47.638;18.966;2023-10-08T07:51:08;7.80;;;2.60;;
71253;SDS011;59019;47.638;18.966;2023-10-08T07:53:33;9.67;;;2.70;;
71253;SDS011;59019;47.638;18.966;2023-10-08T07:56:07;8.10;;;2.63;;
71253;SDS011;59019;47.638;18.966;2023-10-08T07:58:33;8.93;;;2.67;;
71253;SDS011;59019;47.638;18.966;2023-10-08T08:01:05;8.43;;;2.60;;
71253;SDS011;59019;47.638;18.966;2023-10-08T08:03:33;10.40;;;2.70;;
71253;SDS011;59019;47.638;18.966;2023-10-08T08:06:05;9.60;;;2.53;;
71253;SDS011;59019;47.638;18.966;2023-10-08T08:08:34;8.25;;;2.72;;
71253;SDS011;59019;47.638;18.966;2023-10-08T08:11:04;8.33;;;2.50;;
71253;SDS011;59019;47.638;18.966;2023-10-08T08:13:42;8.95;;;2.63;;
71253;SDS011;59019;47.638;18.966;2023-10-08T08:16:09;8.60;;;2.70;;
71253;SDS011;59019;47.638;18.966;2023-10-08T08:18:49;8.27;;;2.75;;
71253;SDS011;59019;47.638;18.966;2023-10-08T08:21:24;8.68;;;2.83;;
71253;SDS011;59019;47.638;18.966;2023-10-08T08:23:50;9.30;;;2.70;;
71253;SDS011;59019;47.638;18.966;2023-10-08T08:26:20;9.02;;;2.70;;
71253;SDS011;59019;47.638;18.966;2023-10-08T08:28:57;16.45;;;7.32;;
71253;SDS011;59019;47.638;18.966;2023-10-08T08:31:29;13.57;;;5.70;;
71253;SDS011;59019;47.638;18.966;2023-10-08T08:34:02;9.50;;;3.38;;
71253;SDS011;59019;47.638;18.966;2023-10-08T08:36:36;10.65;;;2.70;;
71253;SDS011;59019;47.638;18.966;2023-10-08T08:39:04;7.80;;;2.58;;
71253;SDS011;59019;47.638;18.966;2023-10-08T08:41:36;9.98;;;2.65;;
71253;SDS011;59019;47.638;18.966;2023-10-08T08:44:06;9.43;;;2.60;;
71253;SDS011;59019;47.638;18.966;2023-10-08T08:46:36;9.02;;;2.65;;
71253;SDS011;59019;47.638;18.966;2023-10-08T08:49:03;7.68;;;2.40;;
71253;SDS011;59019;47.638;18.966;2023-10-08T08:51:32;7.73;;;2.50;;
71253;SDS011;59019;47.638;18.966;2023-10-08T08:54:00;8.60;;;2.50;;
71253;SDS011;59019;47.638;18.966;2023-10-08T08:56:31;9.00;;;2.50;;
71253;SDS011;59019;47.638;18.966;2023-10-08T08:58:59;7.90;;;2.37;;
71253;SDS011;59019;47.638;18.966;2023-10-08T09:01:26;8.63;;;2.75;;
71253;SDS011;59019;47.638;18.966;2023-10-08T09:03:58;9.40;;;2.33;;
71253;SDS011;59019;47.638;18.966;2023-10-08T09:06:29;8.10;;;2.50;;
71253;SDS011;59019;47.638;18.966;2023-10-08T09:08:58;7.75;;;2.50;;
71253;SDS011;59019;47.638;18.966;2023-10-08T09:11:41;11.82;;;2.58;;
71253;SDS011;59019;47.638;18.966;2023-10-08T09:14:08;9.38;;;2.35;;
71253;SDS011;59019;47.638;18.966;2023-10-08T09:16:38;9.68;;;2.70;;
71253;SDS011;59019;47.638;18.966;2023-10-08T09:19:03;10.48;;;2.60;;
71253;SDS011;59019;47.638;18.966;2023-10-08T09:21:36;9.40;;;2.10;;
71253;SDS011;59019;47.638;18.966;2023-10-08T09:24:02;8.27;;;2.25;;
71253;SDS011;59019;47.638;18.966;2023-10-08T09:26:34;7.63;;;2.40;;
71253;SDS011;59019;47.638;18.966;2023-10-08T09:29:04;11.45;;;2.75;;
71253;SDS011;59019;47.638;18.966;2023-10-08T09:31:30;10.05;;;2.30;;
71253;SDS011;59019;47.638;18.966;2023-10-08T09:34:00;9.67;;;2.40;;
71253;SDS011;59019;47.638;18.966;2023-10-08T09:36:29;8.00;;;2.58;;
71253;SDS011;59019;47.638;18.966;2023-10-08T09:38:59;11.32;;;2.67;;
71253;SDS011;59019;47.638;18.966;2023-10-08T09:41:29;9.65;;;2.55;;
71253;SDS011;59019;47.638;18.966;2023-10-08T09:43:56;10.15;;;2.67;;
71253;SDS011;59019;47.638;18.966;2023-10-08T09:46:25;9.63;;;2.92;;
71253;SDS011;59019;47.638;18.966;2023-10-08T09:48:59;16.25;;;3.30;;
71253;SDS011;59019;47.638;18.966;2023-10-08T09:51:27;11.35;;;2.70;;
71253;SDS011;59019;47.638;18.966;2023-10-08T09:56:36;9.38;;;2.70;;
71253;SDS011;59019;47.638;18.966;2023-10-08T09:59:04;7.60;;;2.37;;
71253;SDS011;59019;47.638;18.966;2023-10-08T10:01:29;7.63;;;2.25;;
71253;SDS011;59019;47.638;18.966;2023-10-08T10:03:57;5.95;;;1.98;;
71253;SDS011;59019;47.638;18.966;2023-10-08T10:06:26;7.53;;;1.90;;
71253;SDS011;59019;47.638;18.966;2023-10-08T10:08:53;5.88;;;1.80;;
71253;SDS011;59019;47.638;18.966;2023-10-08T10:11:25;5.53;;;2.00;;
71253;SDS011;59019;47.638;18.966;2023-10-08T10:13:58;7.55;;;2.20;;
71253;SDS011;59019;47.638;18.966;2023-10-08T10:16:25;6.30;;;1.80;;
71253;SDS011;59019;47.638;18.966;2023-10-08T10:18:57;5.20;;;1.50;;
71253;SDS011;59019;47.638;18.966;2023-10-08T10:21:25;4.50;;;1.15;;
71253;SDS011;59019;47.638;18.966;2023-10-08T10:23:52;4.15;;;0.93;;
71253;SDS011;59019;47.638;18.966;2023-10-08T10:26:22;2.97;;;0.80;;
71253;SDS011;59019;47.638;18.966;2023-10-08T10:31:37;3.30;;;0.70;;
71253;SDS011;59019;47.638;18.966;2023-10-08T10:34:06;3.67;;;0.80;;
71253;SDS011;59019;47.638;18.966;2023-10-08T10:36:36;4.63;;;0.80;;
71253;SDS011;59019;47.638;18.966;2023-10-08T10:39:02;2.78;;;0.50;;
71253;SDS011;59019;47.638;18.966;2023-10-08T10:41:47;2.22;;;0.55;;
71253;SDS011;59019;47.638;18.966;2023-10-08T10:44:14;2.95;;;0.55;;
71253;SDS011;59019;47.638;18.966;2023-10-08T10:46:43;3.28;;;0.57;;
71253;SDS011;59019;47.638;18.966;2023-10-08T10:49:19;2.63;;;0.50;;
71253;SDS011;59019;47.638;18.966;2023-10-08T10:51:56;2.55;;;0.40;;
71253;SDS011;59019;47.638;18.966;2023-10-08T10:54:25;6.60;;;0.70;;
71253;SDS011;59019;47.638;18.966;2023-10-08T10:56:52;2.00;;;0.40;;
71253;SDS011;59019;47.638;18.966;2023-10-08T10:59:32;2.30;;;0.50;;
71253;SDS011;59019;47.638;18.966;2023-10-08T11:02:04;3.22;;;0.50;;
71253;SDS011;59019;47.638;18.966;2023-10-08T11:04:33;2.43;;;0.40;;
71253;SDS011;59019;47.638;18.966;2023-10-08T11:07:12;2.33;;;0.40;;
71253;SDS011;59019;47.638;18.966;2023-10-08T11:09:41;3.95;;;0.40;;
71253;SDS011;59019;47.638;18.966;2023-10-08T11:12:10;1.95;;;0.30;;
71253;SDS011;59019;47.638;18.966;2023-10-08T11:14:40;1.77;;;0.30;;
71253;SDS011;59019;47.638;18.966;2023-10-08T11:17:15;0.95;;;0.20;;
71253;SDS011;59019;47.638;18.966;2023-10-08T11:19:45;2.22;;;0.30;;
71253;SDS011;59019;47.638;18.966;2023-10-08T11:22:14;2.38;;;0.30;;
71253;SDS011;59019;47.638;18.966;2023-10-08T11:24:44;1.10;;;0.32;;
71253;SDS011;59019;47.638;18.966;2023-10-08T11:27:14;1.77;;;0.28;;
71253;SDS011;59019;47.638;18.966;2023-10-08T11:29:45;2.22;;;0.50;;
71253;SDS011;59019;47.638;18.966;2023-10-08T11:32:13;3.05;;;0.70;;
71253;SDS011;59019;47.638;18.966;2023-10-08T11:34:47;2.03;;;0.40;;
71253;SDS011;59019;47.638;18.966;2023-10-08T11:37:26;2.20;;;0.50;;
71253;SDS011;59019;47.638;18.966;2023-10-08T11:39:52;3.13;;;0.32;;
71253;SDS011;59019;47.638;18.966;2023-10-08T11:42:26;2.03;;;0.30;;
71253;SDS011;59019;47.638;18.966;2023-10-08T11:44:57;1.23;;;0.30;;
71253;SDS011;59019;47.638;18.966;2023-10-08T11:47:45;2.38;;;0.30;;
71253;SDS011;59019;47.638;18.966;2023-10-08T11:50:14;1.67;;;0.33;;
71253;SDS011;59019;47.638;18.966;2023-10-08T11:52:45;1.92;;;0.30;;
71253;SDS011;59019;47.638;18.966;2023-10-08T11:55:11;1.10;;;0.20;;
71253;SDS011;59019;47.638;18.966;2023-10-08T11:57:44;1.10;;;0.20;;
71253;SDS011;59019;47.638;18.966;2023-10-08T12:00:15;1.60;;;0.20;;
71253;SDS011;59019;47.638;18.966;2023-10-08T12:02:47;2.43;;;0.30;;
71253;SDS011;59019;47.638;18.966;2023-10-08T12:05:13;1.42;;;0.38;;
71253;SDS011;59019;47.638;18.966;2023-10-08T12:07:46;2.58;;;0.35;;
71253;SDS011;59019;47.638;18.966;2023-10-08T12:10:13;1.60;;;0.30;;
71253;SDS011;59019;47.638;18.966;2023-10-08T12:12:41;2.35;;;0.40;;
71253;SDS011;59019;47.638;18.966;2023-10-08T12:15:07;3.80;;;0.60;;
71253;SDS011;59019;47.638;18.966;2023-10-08T12:17:34;1.60;;;0.30;;
71253;SDS011;59019;47.638;18.966;2023-10-08T12:20:05;1.88;;;0.40;;
71253;SDS011;59019;47.638;18.966;2023-10-08T12:22:48;1.40;;;0.30;;
71253;SDS011;59019;47.638;18.966;2023-10-08T12:25:15;2.90;;;0.30;;
71253;SDS011;59019;47.638;18.966;2023-10-08T12:27:40;2.53;;;0.30;;
71253;SDS011;59019;47.638;18.966;2023-10-08T12:30:06;1.50;;;0.30;;
71253;SDS011;59019;47.638;18.966;2023-10-08T12:32:35;1.90;;;0.30;;
71253;SDS011;59019;47.638;18.966;2023-10-08T12:35:07;2.85;;;0.40;;
71253;SDS011;59019;47.638;18.966;2023-10-08T12:37:38;1.70;;;0.30;;
71253;SDS011;59019;47.638;18.966;2023-10-08T12:40:05;1.70;;;0.30;;
71253;SDS011;59019;47.638;18.966;2023-10-08T12:42:47;2.28;;;0.30;;
71253;SDS011;59019;47.638;18.966;2023-10-08T12:45:15;2.63;;;0.30;;
71253;SDS011;59019;47.638;18.966;2023-10-08T12:47:46;1.55;;;0.30;;
71253;SDS011;59019;47.638;18.966;2023-10-08T12:50:17;1.70;;;0.30;;
71253;SDS011;59019;47.638;18.966;2023-10-08T12:52:48;2.60;;;0.40;;
71253;SDS011;59019;47.638;18.966;2023-10-08T12:55:18;2.67;;;0.50;;
71253;SDS011;59019;47.638;18.966;2023-10-08T12:57:49;2.47;;;0.40;;
71253;SDS011;59019;47.638;18.966;2023-10-08T13:00:28;1.83;;;0.40;;
71253;SDS011;59019;47.638;18.966;2023-10-08T13:02:54;2.90;;;0.70;;
71253;SDS011;59019;47.638;18.966;2023-10-08T13:05:22;2.60;;;0.60;;
71253;SDS011;59019;47.638;18.966;2023-10-08T13:07:55;2.50;;;0.57;;
71253;SDS011;59019;47.638;18.966;2023-10-08T13:10:27;3.70;;;0.50;;
71253;SDS011;59019;47.638;18.966;2023-10-08T13:12:54;2.33;;;0.50;;
71253;SDS011;59019;47.638;18.966;2023-10-08T13:15:19;3.30;;;0.50;;
71253;SDS011;59019;47.638;18.966;2023-10-08T13:17:45;2.80;;;0.63;;
71253;SDS011;59019;47.638;18.966;2023-10-08T13:20:13;3.27;;;1.10;;
71253;SDS011;59019;47.638;18.966;2023-10-08T13:22:45;2.50;;;0.80;;
71253;SDS011;59019;47.638;18.966;2023-10-08T13:25:11;3.13;;;0.77;;
71253;SDS011;59019;47.638;18.966;2023-10-08T13:27:37;3.13;;;0.70;;
71253;SDS011;59019;47.638;18.966;2023-10-08T13:30:07;2.40;;;0.50;;
71253;SDS011;59019;47.638;18.966;2023-10-08T13:32:36;2.50;;;0.50;;
71253;SDS011;59019;47.638;18.966;2023-10-08T13:35:04;2.50;;;0.60;;
71253;SDS011;59019;47.638;18.966;2023-10-08T13:37:33;2.73;;;0.87;;
71253;SDS011;59019;47.638;18.966;2023-10-08T13:39:59;2.60;;;0.52;;
71253;SDS011;59019;47.638;18.966;2023-10-08T13:42:24;2.80;;;0.80;;
71253;SDS011;59019;47.638;18.966;2023-10-08T13:44:52;2.70;;;0.60;;
71253;SDS011;59019;47.638;18.966;2023-10-08T13:47:24;3.10;;;0.80;;
71253;SDS011;59019;47.638;18.966;2023-10-08T13:49:54;4.13;;;1.48;;
71253;SDS011;59019;47.638;18.966;2023-10-08T13:52:22;4.28;;;1.80;;
71253;SDS011;59019;47.638;18.966;2023-10-08T13:54:54;3.55;;;1.00;;
71253;SDS011;59019;47.638;18.966;2023-10-08T13:57:20;2.58;;;0.80;;
71253;SDS011;59019;47.638;18.966;2023-10-08T13:59:46;3.40;;;0.80;;
71253;SDS011;59019;47.638;18.966;2023-10-08T14:02:13;2.83;;;0.75;;
71253;SDS011;59019;47.638;18.966;2023-10-08T14:04:40;2.80;;;0.80;;
71253;SDS011;59019;47.638;18.966;2023-10-08T14:07:12;3.03;;;0.90;;
71253;SDS011;59019;47.638;18.966;2023-10-08T14:09:44;3.08;;;0.82;;
71253;SDS011;59019;47.638;18.966;2023-10-08T14:12:10;3.45;;;1.00;;
71253;SDS011;59019;47.638;18.966;2023-10-08T14:14:38;3.05;;;0.90;;
71253;SDS011;59019;47.638;18.966;2023-10-08T14:17:09;2.92;;;0.90;;
71253;SDS011;59019;47.638;18.966;2023-10-08T14:19:39;4.47;;;1.23;;
71253;SDS011;59019;47.638;18.966;2023-10-08T14:22:11;4.18;;;1.30;;
71253;SDS011;59019;47.638;18.966;2023-10-08T14:24:39;4.50;;;1.10;;
71253;SDS011;59019;47.638;18.966;2023-10-08T14:27:05;3.40;;;1.02;;
71253;SDS011;59019;47.638;18.966;2023-10-08T14:29:40;3.20;;;0.90;;
71253;SDS011;59019;47.638;18.966;2023-10-08T14:32:09;3.30;;;1.00;;
71253;SDS011;59019;47.638;18.966;2023-10-08T14:34:38;3.78;;;1.08;;
71253;SDS011;59019;47.638;18.966;2023-10-08T14:37:22;3.95;;;1.10;;
71253;SDS011;59019;47.638;18.966;2023-10-08T14:40:06;6.13;;;1.20;;
71253;SDS011;59019;47.638;18.966;2023-10-08T14:42:50;3.60;;;0.90;;
71253;SDS011;59019;47.638;18.966;2023-10-08T14:45:25;3.47;;;0.80;;
71253;SDS011;59019;47.638;18.966;2023-10-08T14:47:53;4.82;;;1.10;;
71253;SDS011;59019;47.638;18.966;2023-10-08T14:50:20;3.65;;;1.10;;
71253;SDS011;59019;47.638;18.966;2023-10-08T14:52:50;4.20;;;1.10;;
71253;SDS011;59019;47.638;18.966;2023-10-08T14:55:15;4.40;;;1.00;;
71253;SDS011;59019;47.638;18.966;2023-10-08T14:57:41;6.17;;;1.07;;
71253;SDS011;59019;47.638;18.966;2023-10-08T15:00:07;4.68;;;1.42;;
71253;SDS011;59019;47.638;18.966;2023-10-08T15:02:34;4.60;;;1.52;;
71253;SDS011;59019;47.638;18.966;2023-10-08T15:04:59;4.00;;;1.35;;
71253;SDS011;59019;47.638;18.966;2023-10-08T15:07:28;4.63;;;1.30;;
71253;SDS011;59019;47.638;18.966;2023-10-08T15:09:54;4.43;;;1.30;;